createdAt,value
2022-11-19T00:01:34.425Z,0.60
2022-11-19T00:04:02.015Z,0.50
2022-11-19T00:06:29.532Z,0.50
2022-11-19T00:08:57.045Z,0.40
2022-11-19T00:11:45.499Z,0.50
2022-11-19T00:14:15.726Z,0.40
2022-11-19T00:16:44.577Z,0.40
2022-11-19T00:19:13.007Z,0.50
2022-11-19T00:21:40.518Z,0.50
2022-11-19T00:24:08.449Z,0.40
2022-11-19T00:26:36.392Z,0.30
2022-11-19T00:29:04.023Z,0.40
2022-11-19T00:31:32.360Z,0.40
2022-11-19T00:33:59.883Z,0.40
2022-11-19T00:36:27.412Z,0.50
2022-11-19T00:38:55.125Z,0.50
2022-11-19T00:41:22.787Z,0.60
2022-11-19T00:43:50.479Z,0.70
2022-11-19T00:46:24.009Z,0.70
2022-11-19T00:48:53.800Z,0.70
2022-11-19T00:51:23.119Z,0.80
2022-11-19T00:53:50.643Z,0.80
2022-11-19T00:56:20.270Z,0.80
2022-11-19T00:58:48.712Z,0.80
2022-11-19T01:01:18.129Z,1.00
2022-11-19T01:03:46.246Z,1.10
2022-11-19T01:06:19.118Z,1.00
2022-11-19T01:08:48.719Z,1.00
2022-11-19T01:11:25.792Z,1.00
2022-11-19T01:13:53.735Z,1.20
2022-11-19T01:16:27.382Z,1.30
2022-11-19T01:18:55.588Z,1.20
2022-11-19T01:21:26.122Z,1.10
2022-11-19T01:23:53.950Z,1.10
2022-11-19T01:26:21.833Z,1.10
2022-11-19T01:28:49.799Z,1.10
2022-11-19T01:31:23.152Z,1.10
2022-11-19T01:33:51.132Z,1.00
2022-11-19T01:36:28.401Z,0.90
2022-11-19T01:38:56.818Z,0.90
2022-11-19T01:41:30.264Z,0.90
2022-11-19T01:44:06.618Z,0.90
2022-11-19T01:46:37.216Z,0.70
2022-11-19T01:49:10.362Z,0.60
2022-11-19T01:51:46.842Z,0.60
2022-11-19T01:54:43.972Z,0.70
2022-11-19T01:57:15.155Z,0.70
2022-11-19T01:59:43.980Z,0.60
2022-11-19T02:02:11.657Z,0.60
2022-11-19T02:04:39.842Z,0.50
2022-11-19T02:07:09.588Z,0.50
2022-11-19T02:09:38.330Z,0.60
2022-11-19T02:12:08.545Z,0.50
2022-11-19T02:14:57.789Z,0.50
2022-11-19T02:18:04.133Z,0.60
2022-11-19T02:20:43.982Z,0.50
2022-11-19T02:23:46.127Z,0.70
2022-11-19T02:26:23.040Z,0.70
2022-11-19T02:29:15.681Z,0.60
2022-11-19T02:31:57.545Z,0.50
2022-11-19T02:34:40.745Z,0.40
2022-11-19T02:37:12.915Z,0.40
2022-11-19T02:40:16.917Z,0.40
2022-11-19T02:43:09.093Z,0.40
2022-11-19T02:45:57.464Z,0.40
2022-11-19T02:48:38.871Z,0.20
2022-11-19T02:51:07.604Z,0.10
2022-11-19T02:53:35.730Z,0.00
2022-11-19T02:56:14.423Z,-0.10
2022-11-19T02:59:11.703Z,0.10
2022-11-19T03:02:03.120Z,0.10
2022-11-19T03:04:32.705Z,0.20
2022-11-19T03:07:05.701Z,0.10
2022-11-19T03:09:37.883Z,-0.10
2022-11-19T03:12:27.199Z,-0.30
2022-11-19T03:15:34.929Z,-0.30
2022-11-19T03:18:05.546Z,-0.30
2022-11-19T03:20:44.915Z,-0.30
2022-11-19T03:23:27.180Z,-0.30
2022-11-19T03:26:06.659Z,-0.20
2022-11-19T03:28:38.047Z,-0.20
2022-11-19T03:31:07.261Z,-0.30
2022-11-19T03:33:42.906Z,-0.30
2022-11-19T03:36:20.138Z,-0.30
2022-11-19T03:38:52.159Z,-0.30
2022-11-19T03:41:20.932Z,-0.30
2022-11-19T03:43:54.212Z,-0.20
2022-11-19T03:46:23.539Z,-0.10
2022-11-19T03:48:53.646Z,-0.10
2022-11-19T03:51:40.137Z,-0.10
2022-11-19T03:54:08.260Z,-0.20
2022-11-19T03:56:39.200Z,-0.40
2022-11-19T03:59:09.975Z,-0.30
2022-11-19T04:01:38.722Z,-0.20
2022-11-19T04:04:24.984Z,-0.30
2022-11-19T04:06:52.611Z,-0.30
2022-11-19T04:09:20.710Z,-0.20
2022-11-19T04:14:15.055Z,-0.30
2022-11-19T04:16:42.503Z,-0.30
2022-11-19T04:19:10.073Z,-0.30
2022-11-19T04:21:37.714Z,-0.30
2022-11-19T04:24:05.609Z,-0.30
2022-11-19T04:26:33.095Z,-0.40
2022-11-19T04:29:00.608Z,-0.40
2022-11-19T04:31:28.172Z,-0.50
2022-11-19T04:33:55.629Z,-0.50
2022-11-19T04:36:23.276Z,-0.60
2022-11-19T04:38:50.803Z,-0.50
2022-11-19T04:41:18.236Z,-0.40
2022-11-19T04:43:45.744Z,-0.40
2022-11-19T04:46:13.299Z,-0.50
2022-11-19T04:48:40.802Z,-0.60
2022-11-19T04:51:08.527Z,-0.60
2022-11-19T04:53:36.152Z,-0.60
2022-11-19T04:56:03.794Z,-0.50
2022-11-19T04:58:31.328Z,-0.40
2022-11-19T05:00:58.902Z,-0.60
2022-11-19T05:03:26.447Z,-0.60
2022-11-19T05:05:54.998Z,-0.50
2022-11-19T05:08:22.657Z,-0.50
2022-11-19T05:10:50.200Z,-0.50
2022-11-19T05:13:17.819Z,-0.50
2022-11-19T05:15:46.079Z,-0.50
2022-11-19T05:18:14.081Z,-0.70
2022-11-19T05:20:41.540Z,-0.60
2022-11-19T05:23:09.111Z,-0.60
2022-11-19T05:25:36.808Z,-0.60
2022-11-19T05:28:04.455Z,-0.70
2022-11-19T05:30:32.216Z,-0.70
2022-11-19T05:32:59.690Z,-0.70
2022-11-19T05:35:27.467Z,-0.80
2022-11-19T05:37:54.985Z,-0.70
2022-11-19T05:40:22.548Z,-0.70
2022-11-19T05:42:50.007Z,-0.60
2022-11-19T05:45:17.706Z,-0.80
2022-11-19T05:47:48.597Z,-1.00
2022-11-19T05:50:16.484Z,-1.00
2022-11-19T05:52:44.016Z,-1.00
2022-11-19T05:55:11.480Z,-1.00
2022-11-19T05:57:39.041Z,-1.00
2022-11-19T06:00:08.010Z,-1.00
2022-11-19T06:02:40.271Z,-1.10
2022-11-19T06:05:08.306Z,-0.90
2022-11-19T06:07:36.218Z,-0.90
2022-11-19T06:10:04.123Z,-0.90
2022-11-19T06:12:32.071Z,-0.90
2022-11-19T06:15:01.876Z,-1.00
2022-11-19T06:17:29.585Z,-0.90
2022-11-19T06:20:02.730Z,-0.80
2022-11-19T06:22:30.291Z,-0.90
2022-11-19T06:24:57.865Z,-0.90
2022-11-19T06:27:25.360Z,-0.90
2022-11-19T06:29:56.219Z,-0.90
2022-11-19T06:32:24.143Z,-1.00
2022-11-19T06:34:51.767Z,-1.00
2022-11-19T06:37:19.308Z,-0.80
2022-11-19T06:39:46.814Z,-0.80
2022-11-19T06:42:34.442Z,-0.70
2022-11-19T06:45:03.397Z,-0.70
2022-11-19T06:47:32.421Z,-0.70
2022-11-19T06:50:02.340Z,-0.90
2022-11-19T06:52:29.968Z,-0.80
2022-11-19T06:54:57.555Z,-0.60
2022-11-19T06:57:33.206Z,-0.90
2022-11-19T07:00:04.313Z,-0.80
2022-11-19T07:02:34.391Z,-0.80
2022-11-19T07:05:01.913Z,-0.70
2022-11-19T07:07:29.592Z,-0.70
2022-11-19T07:09:58.137Z,-0.70
2022-11-19T07:12:25.629Z,-0.70
2022-11-19T07:14:53.342Z,-0.70
2022-11-19T07:17:20.818Z,-0.60
2022-11-19T07:19:50.092Z,-0.50
2022-11-19T07:22:18.017Z,-0.40
2022-11-19T07:24:49.097Z,-0.30
2022-11-19T07:27:17.408Z,-0.20
2022-11-19T07:29:44.888Z,-0.20
2022-11-19T07:32:12.404Z,-0.20
2022-11-19T07:34:39.993Z,-0.10
2022-11-19T07:37:08.076Z,-0.20
2022-11-19T07:39:35.655Z,-0.20
2022-11-19T07:42:24.726Z,-0.10
2022-11-19T07:44:54.890Z,0.00
2022-11-19T07:47:22.703Z,0.00
2022-11-19T07:49:50.199Z,0.00
2022-11-19T07:52:17.811Z,-0.10
2022-11-19T07:54:45.318Z,0.10
2022-11-19T07:57:13.217Z,0.10
2022-11-19T07:59:40.721Z,0.00
2022-11-19T08:02:14.086Z,0.10
2022-11-19T08:04:41.889Z,0.10
2022-11-19T08:07:09.519Z,0.20
2022-11-19T08:09:37.236Z,0.30
2022-11-19T08:12:05.038Z,0.20
2022-11-19T08:14:32.571Z,0.00
2022-11-19T08:17:18.357Z,0.20
2022-11-19T08:19:45.858Z,0.20
2022-11-19T08:22:13.631Z,0.30
2022-11-19T08:24:41.095Z,0.30
2022-11-19T08:27:08.573Z,0.30
2022-11-19T08:29:36.032Z,0.20
2022-11-19T08:32:03.932Z,0.30
2022-11-19T08:34:32.242Z,0.30
2022-11-19T08:36:59.982Z,0.40
2022-11-19T08:39:27.754Z,0.40
2022-11-19T08:42:18.174Z,0.60
2022-11-19T08:44:45.650Z,0.70
2022-11-19T08:47:13.173Z,0.70
2022-11-19T08:49:41.667Z,0.80
2022-11-19T08:52:09.850Z,0.90
2022-11-19T08:54:37.324Z,1.00
2022-11-19T08:57:04.903Z,1.10
2022-11-19T08:59:32.476Z,1.20
2022-11-19T09:01:59.995Z,1.20
2022-11-19T09:04:27.531Z,1.20
2022-11-19T09:06:55.052Z,1.20
2022-11-19T09:09:22.735Z,1.40
2022-11-19T09:11:50.314Z,1.50
2022-11-19T09:14:18.271Z,1.60
2022-11-19T09:16:46.204Z,1.70
2022-11-19T09:19:13.720Z,2.40
2022-11-19T09:21:41.215Z,2.90
2022-11-19T09:24:08.704Z,3.00
2022-11-19T09:26:36.274Z,4.20
2022-11-19T09:29:03.933Z,5.10
2022-11-19T09:31:31.488Z,5.50
2022-11-19T09:33:58.983Z,6.50
2022-11-19T09:36:26.473Z,6.90
2022-11-19T09:38:58.191Z,6.90
2022-11-19T09:41:50.106Z,6.60
2022-11-19T09:44:28.366Z,7.20
2022-11-19T09:47:20.751Z,7.80
2022-11-19T09:50:13.379Z,8.20
2022-11-19T09:52:47.159Z,8.30
2022-11-19T09:55:40.591Z,8.40
2022-11-19T09:58:31.341Z,8.60
2022-11-19T10:00:59.660Z,8.80
2022-11-19T10:03:33.741Z,9.00
2022-11-19T10:06:24.199Z,8.80
2022-11-19T10:09:02.899Z,8.50
2022-11-19T10:11:38.370Z,8.90
2022-11-19T10:14:29.779Z,9.50
2022-11-19T10:17:05.308Z,10.20
2022-11-19T10:19:55.139Z,10.90
2022-11-19T10:22:52.894Z,11.40
2022-11-19T10:25:27.971Z,11.80
2022-11-19T10:28:03.796Z,11.90
2022-11-19T10:30:31.677Z,11.40
2022-11-19T10:33:10.028Z,10.70
2022-11-19T10:35:42.591Z,10.30
2022-11-19T10:38:50.951Z,10.50
2022-11-19T10:41:34.102Z,10.40
2022-11-19T10:44:40.527Z,10.50
2022-11-19T10:47:15.507Z,10.60
2022-11-19T10:49:43.994Z,10.70
2022-11-19T10:52:22.383Z,11.00
2022-11-19T10:54:53.064Z,11.20
2022-11-19T10:57:21.900Z,10.80
2022-11-19T10:59:52.854Z,10.70
2022-11-19T11:02:31.739Z,11.10
2022-11-19T11:05:00.520Z,10.70
2022-11-19T11:07:51.475Z,11.40
2022-11-19T11:10:39.913Z,12.00
2022-11-19T11:13:56.338Z,11.20
2022-11-19T11:16:39.523Z,10.40
2022-11-19T11:19:19.719Z,10.50
2022-11-19T11:21:53.437Z,10.40
2022-11-19T11:24:24.050Z,10.50
2022-11-19T11:27:18.787Z,11.40
2022-11-19T11:29:49.845Z,11.60
2022-11-19T11:32:35.712Z,12.70
2022-11-19T11:35:07.502Z,13.90
2022-11-19T11:37:36.797Z,14.30
2022-11-19T11:40:05.305Z,14.80
2022-11-19T11:42:33.700Z,15.40
2022-11-19T11:45:05.456Z,15.30
2022-11-19T11:47:38.570Z,15.60
2022-11-19T11:50:20.516Z,15.70
2022-11-19T11:52:52.813Z,15.90
2022-11-19T11:55:23.407Z,16.60
2022-11-19T11:57:55.087Z,16.60
2022-11-19T12:00:37.722Z,16.80
2022-11-19T12:03:20.090Z,16.80
2022-11-19T12:06:11.958Z,17.00
2022-11-19T12:08:58.225Z,16.80
2022-11-19T12:11:28.392Z,16.80
2022-11-19T12:14:15.286Z,16.40
2022-11-19T12:16:53.619Z,16.30
2022-11-19T12:19:53.151Z,15.80
2022-11-19T12:22:57.888Z,16.60
2022-11-19T12:26:02.317Z,15.70
2022-11-19T12:28:55.160Z,15.40
2022-11-19T12:32:09.725Z,13.70
2022-11-19T12:35:01.908Z,12.30
2022-11-19T12:37:41.475Z,10.40
2022-11-19T12:40:14.842Z,8.80
2022-11-19T12:43:01.866Z,8.60
2022-11-19T12:45:43.860Z,8.50
2022-11-19T12:48:37.066Z,9.20
2022-11-19T12:51:19.564Z,10.20
2022-11-19T12:53:47.422Z,11.90
2022-11-19T12:56:17.575Z,13.00
2022-11-19T12:59:06.269Z,12.40
2022-11-19T13:01:40.565Z,11.80
2022-11-19T13:04:21.052Z,11.90
2022-11-19T13:07:06.925Z,11.30
2022-11-19T13:09:44.192Z,10.30
2022-11-19T13:12:26.637Z,9.20
2022-11-19T13:15:02.485Z,8.40
2022-11-19T13:17:45.037Z,7.50
2022-11-19T13:20:23.463Z,6.80
2022-11-19T13:22:58.164Z,6.50
2022-11-19T13:25:30.520Z,6.30
2022-11-19T13:28:02.098Z,6.20
2022-11-19T13:30:32.168Z,6.30
2022-11-19T13:33:12.779Z,6.20
2022-11-19T13:36:07.793Z,5.90
2022-11-19T13:38:59.594Z,5.70
2022-11-19T13:42:09.222Z,5.70
2022-11-19T13:44:43.681Z,5.40
2022-11-19T13:47:14.265Z,5.30
2022-11-19T13:50:05.069Z,5.20
2022-11-19T13:52:45.672Z,5.00
2022-11-19T13:55:37.852Z,4.70
2022-11-19T13:58:36.014Z,4.60
2022-11-19T14:01:33.279Z,4.50
2022-11-19T14:04:11.166Z,4.50
2022-11-19T14:07:13.815Z,4.50
2022-11-19T14:09:59.408Z,4.40
2022-11-19T14:13:07.266Z,4.30
2022-11-19T14:16:27.306Z,4.20
2022-11-19T14:19:19.407Z,4.20
2022-11-19T14:22:13.016Z,4.10
2022-11-19T14:24:58.841Z,4.20
2022-11-19T14:27:35.895Z,4.10
2022-11-19T14:30:20.340Z,4.00
2022-11-19T14:32:51.205Z,3.80
2022-11-19T14:35:30.079Z,3.80
2022-11-19T14:38:26.015Z,3.70
2022-11-19T14:41:14.037Z,3.60
2022-11-19T14:44:57.005Z,3.60
2022-11-19T14:47:33.946Z,3.50
2022-11-19T14:50:07.604Z,3.50
2022-11-19T14:52:52.255Z,3.50
2022-11-19T14:55:27.388Z,3.50
2022-11-19T14:58:21.008Z,3.40
2022-11-19T15:00:51.225Z,3.40
2022-11-19T15:03:27.466Z,3.20
2022-11-19T15:05:55.830Z,3.10
2022-11-19T15:08:23.183Z,3.10
2022-11-19T15:11:13.010Z,3.10
2022-11-19T15:13:48.844Z,3.10
2022-11-19T15:16:21.149Z,2.90
2022-11-19T15:19:07.506Z,2.90
2022-11-19T15:21:34.991Z,2.70
2022-11-19T15:24:34.537Z,2.70
2022-11-19T15:27:34.664Z,2.70
2022-11-19T15:30:11.367Z,2.60
2022-11-19T15:32:41.844Z,2.40
2022-11-19T15:35:38.218Z,2.30
2022-11-19T15:38:19.974Z,2.10
2022-11-19T15:40:49.944Z,2.20
2022-11-19T15:43:44.745Z,2.00
2022-11-19T15:46:39.283Z,2.00
2022-11-19T15:49:28.244Z,1.90
2022-11-19T15:52:14.604Z,1.90
2022-11-19T15:54:45.721Z,1.90
2022-11-19T15:57:26.248Z,1.80
2022-11-19T15:59:58.983Z,1.90
2022-11-19T16:02:42.576Z,1.90
2022-11-19T16:05:30.107Z,1.90
2022-11-19T16:07:59.896Z,2.00
2022-11-19T16:10:30.768Z,2.10
2022-11-19T16:13:19.482Z,2.00
2022-11-19T16:16:11.444Z,2.10
2022-11-19T16:18:52.127Z,2.00
2022-11-19T16:21:25.084Z,2.00
2022-11-19T16:24:11.522Z,2.00
2022-11-19T16:26:43.355Z,2.00
2022-11-19T16:29:23.613Z,2.10
2022-11-19T16:31:59.672Z,2.10
2022-11-19T16:34:29.322Z,2.10
2022-11-19T16:36:57.301Z,2.00
2022-11-19T16:39:33.970Z,1.90
2022-11-19T16:42:17.654Z,1.80
2022-11-19T16:44:56.721Z,2.00
2022-11-19T16:47:54.624Z,2.10
2022-11-19T16:50:28.538Z,2.20
2022-11-19T16:52:56.385Z,2.30
2022-11-19T16:55:24.163Z,2.20
2022-11-19T16:58:15.472Z,2.10
2022-11-19T17:00:48.170Z,2.10
2022-11-19T17:03:23.727Z,2.10
2022-11-19T17:05:53.576Z,2.10
2022-11-19T17:08:31.225Z,2.10
2022-11-19T17:11:37.875Z,2.20
2022-11-19T17:14:11.466Z,2.20
2022-11-19T17:16:39.239Z,2.20
2022-11-19T17:19:31.735Z,2.10
2022-11-19T17:22:02.923Z,2.00
2022-11-19T17:24:38.744Z,2.10
2022-11-19T17:27:06.552Z,2.10
2022-11-19T17:29:34.144Z,2.10
2022-11-19T17:32:04.279Z,2.20
2022-11-19T17:34:41.571Z,2.20
2022-11-19T17:37:09.373Z,2.20
2022-11-19T17:39:36.841Z,2.10
2022-11-19T17:42:23.147Z,2.20
2022-11-19T17:44:50.779Z,2.20
2022-11-19T17:47:23.201Z,2.20
2022-11-19T17:49:52.189Z,2.20
2022-11-19T17:52:22.938Z,2.20
2022-11-19T17:54:52.682Z,2.20
2022-11-19T17:57:20.222Z,2.20
2022-11-19T17:59:47.716Z,2.30
2022-11-19T18:02:20.723Z,2.30
2022-11-19T18:04:48.969Z,2.30
2022-11-19T18:07:16.567Z,2.20
2022-11-19T18:09:44.873Z,2.20
2022-11-19T18:12:17.616Z,2.20
2022-11-19T18:15:00.836Z,2.20
2022-11-19T18:17:35.964Z,2.20
2022-11-19T18:20:03.825Z,2.20
2022-11-19T18:22:31.380Z,2.30
2022-11-19T18:24:59.397Z,2.40
2022-11-19T18:27:27.458Z,2.40
2022-11-19T18:29:55.020Z,2.40
2022-11-19T18:32:25.136Z,2.40
2022-11-19T18:34:52.998Z,2.40
2022-11-19T18:37:20.425Z,2.40
2022-11-19T18:39:48.057Z,2.30
2022-11-19T18:42:15.611Z,2.30
2022-11-19T18:44:50.715Z,2.30
2022-11-19T18:47:20.020Z,2.30
2022-11-19T18:49:47.685Z,2.30
2022-11-19T18:52:15.361Z,2.40
2022-11-19T18:54:43.154Z,2.30
2022-11-19T18:57:11.988Z,2.30
2022-11-19T18:59:40.460Z,2.30
2022-11-19T19:02:10.653Z,2.30
2022-11-19T19:04:38.314Z,2.40
2022-11-19T19:07:05.895Z,2.40
2022-11-19T19:09:33.402Z,2.50
2022-11-19T19:12:19.142Z,2.50
2022-11-19T19:14:49.139Z,2.60
2022-11-19T19:17:17.038Z,2.50
2022-11-19T19:19:45.009Z,2.40
2022-11-19T19:22:12.658Z,2.30
2022-11-19T19:24:40.123Z,2.40
2022-11-19T19:27:07.669Z,2.40
2022-11-19T19:29:35.291Z,2.40
2022-11-19T19:32:02.899Z,2.40
2022-11-19T19:34:30.741Z,2.40
2022-11-19T19:36:58.231Z,2.30
2022-11-19T19:39:26.344Z,2.20
2022-11-19T19:41:55.423Z,2.30
2022-11-19T19:44:22.930Z,2.20
2022-11-19T19:46:50.884Z,2.10
2022-11-19T19:49:19.085Z,2.20
2022-11-19T19:51:47.847Z,2.30
2022-11-19T19:54:15.552Z,2.20
2022-11-19T19:56:43.583Z,2.10
2022-11-19T19:59:12.674Z,2.10
2022-11-19T20:01:47.454Z,2.10
2022-11-19T20:04:15.165Z,2.00
2022-11-19T20:06:47.010Z,1.90
2022-11-19T20:09:14.887Z,1.80
2022-11-19T20:11:42.370Z,1.80
2022-11-19T20:14:10.227Z,1.70
2022-11-19T20:16:40.487Z,1.70
2022-11-19T20:19:12.029Z,1.70
2022-11-19T20:21:39.561Z,1.50
2022-11-19T20:24:12.101Z,1.50
2022-11-19T20:26:41.415Z,1.50
2022-11-19T20:29:12.122Z,1.50
2022-11-19T20:31:40.937Z,1.50
2022-11-19T20:34:09.727Z,1.40
2022-11-19T20:36:37.311Z,1.40
2022-11-19T20:39:06.474Z,1.30
2022-11-19T20:41:52.760Z,1.30
2022-11-19T20:44:21.244Z,1.30
2022-11-19T20:46:58.447Z,1.30
2022-11-19T20:49:28.997Z,1.30
2022-11-19T20:51:59.659Z,1.30
2022-11-19T20:54:28.161Z,1.30
2022-11-19T20:56:56.743Z,1.30
2022-11-19T20:59:26.444Z,1.20
2022-11-19T21:01:56.071Z,1.30
2022-11-19T21:04:27.067Z,1.30
2022-11-19T21:06:54.994Z,1.20
2022-11-19T21:09:22.772Z,1.20
2022-11-19T21:11:53.234Z,1.20
2022-11-19T21:14:20.833Z,1.10
2022-11-19T21:16:48.668Z,1.00
2022-11-19T21:19:16.807Z,1.00
2022-11-19T21:21:45.540Z,1.00
2022-11-19T21:24:13.268Z,1.00
2022-11-19T21:26:43.351Z,1.00
2022-11-19T21:29:11.026Z,0.80
2022-11-19T21:31:39.235Z,0.80
2022-11-19T21:34:13.616Z,1.00
2022-11-19T21:36:42.739Z,0.90
2022-11-19T21:39:14.795Z,1.00
2022-11-19T21:41:45.567Z,0.90
2022-11-19T21:44:16.753Z,1.10
2022-11-19T21:46:48.637Z,1.10
2022-11-19T21:49:16.127Z,1.20
2022-11-19T21:51:44.470Z,1.20
2022-11-19T21:54:12.277Z,1.10
2022-11-19T21:56:39.847Z,1.00
2022-11-19T21:59:07.498Z,0.90
2022-11-19T22:01:35.299Z,0.90
2022-11-19T22:04:05.957Z,0.80
2022-11-19T22:06:36.508Z,0.70
2022-11-19T22:09:04.131Z,0.70
2022-11-19T22:11:32.297Z,0.80
2022-11-19T22:14:07.047Z,0.80
2022-11-19T22:16:37.412Z,0.70
2022-11-19T22:19:05.950Z,0.70
2022-11-19T22:21:34.348Z,0.60
2022-11-19T22:24:02.241Z,0.60
2022-11-19T22:26:29.820Z,0.60
2022-11-19T22:29:00.992Z,0.50
2022-11-19T22:31:28.482Z,0.60
2022-11-19T22:33:58.866Z,0.50
2022-11-19T22:36:26.412Z,0.40
2022-11-19T22:38:53.930Z,0.40
2022-11-19T22:41:22.694Z,0.40
2022-11-19T22:43:51.108Z,0.30
2022-11-19T22:46:20.008Z,0.20
2022-11-19T22:48:47.743Z,0.20
2022-11-19T22:51:20.507Z,0.30
2022-11-19T22:53:49.564Z,0.30
2022-11-19T22:56:22.545Z,0.10
2022-11-19T22:58:50.523Z,0.00
2022-11-19T23:01:19.722Z,-0.10
2022-11-19T23:03:47.449Z,0.00
2022-11-19T23:06:15.578Z,0.00
2022-11-19T23:08:43.800Z,-0.10
2022-11-19T23:11:12.287Z,-0.30
2022-11-19T23:13:42.684Z,-0.30
2022-11-19T23:16:20.641Z,-0.20
2022-11-19T23:18:50.544Z,-0.30
2022-11-19T23:21:23.836Z,-0.20
2022-11-19T23:23:52.015Z,-0.10
2022-11-19T23:26:21.809Z,0.00
2022-11-19T23:28:50.029Z,-0.10
2022-11-19T23:31:26.165Z,-0.20
2022-11-19T23:33:58.748Z,-0.20
2022-11-19T23:36:29.690Z,-0.10
2022-11-19T23:38:57.704Z,0.00
2022-11-19T23:41:25.867Z,0.10
2022-11-19T23:43:54.876Z,0.10
2022-11-19T23:46:27.664Z,0.00
2022-11-19T23:48:56.821Z,0.00
2022-11-19T23:51:30.105Z,-0.20
2022-11-19T23:53:58.507Z,-0.30
2022-11-19T23:56:27.315Z,-0.10
2022-11-19T23:58:54.943Z,-0.10
